Time;durP1;ratioP1;P1;durP2;ratioP2;P2;SDS_P1;SDS_P2;PMS_P1;PMS_P2;Temp;Humidity;BMP_temperature;BMP_pressure;BME280_temperature;BME280_humidity;BME280_pressure;Samples;Min_cycle;Max_cycle;Signal;HPM_P1;HPM_P2
2021/01/22 09:54:33;;;;;;;47.00;31.60;;;22.70;33.80;;;;;;1802002;23;20217;-94
2021/01/22 09:57:00;;;;;;;49.92;33.47;;;23.30;29.70;;;;;;4940611;28;20050;-95
2021/01/22 09:59:26;;;;;;;48.58;33.50;;;24.10;30.80;;;;;;4931552;28;20024;-95
2021/01/22 10:01:52;;;;;;;55.55;34.63;;;25.20;29.80;;;;;;4917694;28;20039;-95
2021/01/22 10:04:19;;;;;;;53.72;36.92;;;26.40;28.00;;;;;;4927511;28;20031;-96
2021/01/22 10:06:45;;;;;;;55.90;41.27;;;26.70;27.80;;;;;;4944313;28;20038;-94
2021/01/22 10:09:11;;;;;;;62.67;44.63;;;27.00;27.70;;;;;;4937042;28;20282;-94
2021/01/22 10:11:39;;;;;;;72.72;53.17;;;26.10;27.10;;;;;;4932989;28;20490;-93
2021/01/22 10:14:12;;;;;;;74.28;51.22;;;25.80;29.40;;;;;;4931647;28;20080;-94
2021/01/22 10:16:38;;;;;;;61.35;45.65;;;26.00;27.80;;;;;;4920014;29;20518;-94
2021/01/22 10:19:05;;;;;;;60.22;45.20;;;25.70;28.50;;;;;;4917822;28;20049;-93
2021/01/22 10:21:31;;;;;;;64.57;44.95;;;25.70;28.40;;;;;;4945528;29;20056;-94
2021/01/22 10:23:57;;;;;;;56.63;42.92;;;25.90;29.60;;;;;;4929971;28;20020;-93
2021/01/22 10:26:24;;;;;;;58.63;44.25;;;27.50;28.20;;;;;;4937003;28;20506;-94
2021/01/22 10:28:52;;;;;;;56.17;41.90;;;27.90;27.30;;;;;;4924271;29;20032;-94
2021/01/22 10:31:20;;;;;;;57.28;41.40;;;27.20;27.00;;;;;;4941762;28;20085;-93
2021/01/22 10:33:49;;;;;;;55.47;40.50;;;27.60;28.80;;;;;;4945436;28;20038;-93
2021/01/22 10:36:18;;;;;;;58.00;42.50;;;28.10;26.50;;;;;;4926708;29;20036;-93
2021/01/22 10:38:44;;;;;;;57.90;41.60;;;27.80;26.40;;;;;;4923862;29;20835;-93
2021/01/22 10:41:10;;;;;;;51.85;39.50;;;27.90;27.10;;;;;;4915865;29;20122;-93
2021/01/22 10:43:37;;;;;;;52.28;39.72;;;28.30;27.20;;;;;;4893557;29;20166;-93
2021/01/22 10:46:03;;;;;;;54.70;37.70;;;29.50;28.10;;;;;;4913390;29;20127;-93
2021/01/22 10:48:35;;;;;;;48.10;35.70;;;30.50;27.80;;;;;;4918122;29;20287;-93
2021/01/22 10:51:01;;;;;;;47.17;36.40;;;31.70;25.80;;;;;;4912537;29;20042;-92
2021/01/22 10:53:36;;;;;;;45.47;35.85;;;32.20;26.40;;;;;;4908298;29;20031;-91
2021/01/22 10:56:03;;;;;;;46.58;34.85;;;32.60;25.60;;;;;;4919092;29;20138;-94
2021/01/22 10:58:29;;;;;;;45.08;33.58;;;33.00;25.50;;;;;;4921092;29;20026;-94
2021/01/22 11:00:56;;;;;;;50.83;34.80;;;33.20;26.50;;;;;;4911607;29;20027;-92
2021/01/22 11:03:27;;;;;;;48.10;34.05;;;33.40;25.20;;;;;;4894883;29;20027;-95
2021/01/22 11:06:16;;;;;;;43.33;32.20;;;32.30;24.50;;;;;;4904287;29;20119;-94
2021/01/22 11:08:55;;;;;;;45.33;33.53;;;31.60;26.50;;;;;;4919092;29;20016;-93
2021/01/22 11:11:21;;;;;;;46.90;35.63;;;30.50;26.40;;;;;;4919402;29;20038;-90
2021/01/22 11:13:47;;;;;;;47.85;36.00;;;29.90;26.20;;;;;;4917663;29;20021;-93
2021/01/22 11:16:12;;;;;;;48.97;37.13;;;29.30;26.10;;;;;;4917677;29;20055;-92
2021/01/22 11:18:44;;;;;;;48.88;36.53;;;28.50;26.30;;;;;;4916509;29;20111;-92
2021/01/22 11:21:13;;;;;;;52.92;38.55;;;27.20;27.20;;;;;;4921802;29;20038;-92
2021/01/22 11:23:39;;;;;;;48.38;38.55;;;24.40;27.50;;;;;;4928231;29;20029;-90
2021/01/22 11:26:05;;;;;;;55.33;41.03;;;21.60;31.50;;;;;;4917820;29;20044;-93
2021/01/22 11:28:33;;;;;;;55.25;42.40;;;21.10;34.30;;;;;;4919986;29;20467;-92
2021/01/22 11:30:58;;;;;;;55.92;40.20;;;20.30;34.50;;;;;;4923822;29;20036;-91
2021/01/22 11:33:26;;;;;;;55.85;40.22;;;19.30;37.30;;;;;;4906296;29;20046;-91
2021/01/22 11:35:52;;;;;;;50.75;38.20;;;18.20;40.30;;;;;;4936963;29;20379;-92
2021/01/22 11:38:18;;;;;;;50.88;36.03;;;18.20;39.10;;;;;;4926855;29;20043;-93
2021/01/22 11:40:44;;;;;;;53.22;34.97;;;19.70;36.00;;;;;;4929101;29;20023;-93
2021/01/22 11:43:10;;;;;;;46.33;33.17;;;21.00;33.90;;;;;;4925084;29;20028;-92
2021/01/22 11:45:36;;;;;;;46.50;33.50;;;22.10;32.70;;;;;;4923476;29;20035;-92
2021/01/22 11:48:03;;;;;;;51.05;36.35;;;22.40;31.20;;;;;;4909048;29;20047;-91
2021/01/22 11:50:28;;;;;;;47.22;35.78;;;22.90;30.80;;;;;;4921722;29;20043;-92
2021/01/22 11:52:57;;;;;;;47.20;35.92;;;23.70;29.10;;;;;;4915997;29;20031;-92
2021/01/22 11:55:33;;;;;;;53.45;36.22;;;24.00;29.40;;;;;;4905293;29;20048;-92
2021/01/22 11:58:00;;;;;;;53.63;36.80;;;23.90;30.80;;;;;;4907466;29;20040;-91
2021/01/22 12:00:29;;;;;;;52.88;34.88;;;24.20;30.10;;;;;;4920271;29;20039;-91
2021/01/22 12:03:01;;;;;;;46.00;33.58;;;24.50;29.30;;;;;;4928612;29;20032;-91
2021/01/22 12:05:40;;;;;;;44.83;34.13;;;25.10;28.60;;;;;;4916075;29;20035;-92
2021/01/22 12:08:16;;;;;;;42.80;33.53;;;25.00;29.20;;;;;;4906573;29;20480;-91
2021/01/22 12:10:45;;;;;;;40.30;33.55;;;25.50;29.70;;;;;;4922401;29;20044;-92
2021/01/22 12:13:10;;;;;;;47.90;34.58;;;25.50;29.70;;;;;;4902493;29;20028;-92
2021/01/22 12:15:39;;;;;;;48.05;35.97;;;25.30;29.60;;;;;;4906113;29;20050;-92
2021/01/22 12:18:35;;;;;;;44.90;35.95;;;24.90;29.40;;;;;;4904771;29;20407;-92
2021/01/22 12:21:01;;;;;;;45.08;35.65;;;24.20;29.00;;;;;;4902479;29;20043;-91
2021/01/22 12:23:27;;;;;;;46.35;36.65;;;23.60;29.80;;;;;;4917573;29;20028;-91
2021/01/22 12:25:56;;;;;;;48.08;37.65;;;23.00;30.00;;;;;;4927248;29;20019;-91
2021/01/22 12:28:22;;;;;;;50.50;39.42;;;22.10;31.30;;;;;;4917745;29;20496;-91
2021/01/22 12:30:55;;;;;;;52.90;39.63;;;22.20;31.20;;;;;;4933010;29;20028;-91
2021/01/22 12:33:22;;;;;;;21.60;17.00;;;22.20;30.50;;;;;;4923490;29;20292;-92
2021/01/22 12:35:51;;;;;;;45.38;33.83;;;21.90;31.40;;;;;;4906462;29;20032;-91
2021/01/22 12:38:24;;;;;;;56.42;40.22;;;21.50;34.50;;;;;;4890669;29;20139;-91
2021/01/22 12:40:51;;;;;;;75.93;49.53;;;21.00;32.70;;;;;;4928175;29;20042;-91
2021/01/22 12:43:18;;;;;;;71.60;48.70;;;19.40;35.20;;;;;;4920696;29;20028;-91
2021/01/22 12:45:44;;;;;;;76.63;51.17;;;18.20;37.70;;;;;;4933297;29;20379;-91
2021/01/22 12:48:13;;;;;;;67.43;47.55;;;17.30;39.60;;;;;;4915748;29;20031;-92
2021/01/22 12:50:41;;;;;;;60.50;44.80;;;16.50;41.90;;;;;;4919038;29;20051;-92
2021/01/22 12:53:06;;;;;;;59.45;38.90;;;15.90;43.10;;;;;;4920251;29;20379;-92
2021/01/22 12:55:33;;;;;;;48.70;31.15;;;15.50;44.70;;;;;;4918813;29;20051;-92
2021/01/22 12:57:59;;;;;;;43.05;29.13;;;15.30;45.60;;;;;;4926340;29;20043;-90
2021/01/22 13:00:25;;;;;;;41.58;28.10;;;15.00;45.60;;;;;;4932726;29;20030;-91
2021/01/22 13:03:14;;;;;;;37.85;25.63;;;14.90;46.30;;;;;;4944071;29;20075;-90
2021/01/22 13:18:06;;;;;;;37.35;26.27;;;14.60;46.60;;;;;;5304606;23;20055;-90
2021/01/22 13:20:32;;;;;;;36.42;25.63;;;15.00;45.80;;;;;;4943043;29;20032;-91
2021/01/22 13:22:57;;;;;;;37.72;25.58;;;15.40;44.80;;;;;;4920263;29;20028;-91
2021/01/22 13:25:23;;;;;;;41.38;27.60;;;15.60;45.40;;;;;;4934038;28;20063;-91
2021/01/22 13:27:50;;;;;;;35.95;26.42;;;16.00;45.60;;;;;;4952694;28;20020;-93
2021/01/22 13:30:16;;;;;;;46.92;27.38;;;16.50;45.50;;;;;;4931185;28;20038;-92
2021/01/22 13:32:41;;;;;;;41.55;26.50;;;16.90;43.60;;;;;;4902040;28;20380;-91
2021/01/22 13:35:08;;;;;;;45.33;27.95;;;17.10;42.20;;;;;;4918446;28;20028;-91
2021/01/22 13:37:33;;;;;;;42.93;28.50;;;16.30;42.20;;;;;;4949359;28;20133;-91
2021/01/22 13:39:59;;;;;;;41.28;28.80;;;15.40;44.80;;;;;;4940649;28;20423;-90
2021/01/22 13:42:25;;;;;;;39.50;28.23;;;14.80;46.50;;;;;;4926083;29;20554;-91
2021/01/22 13:44:51;;;;;;;43.47;29.90;;;14.10;47.80;;;;;;4918710;29;20067;-90
2021/01/22 13:47:17;;;;;;;44.72;29.42;;;13.90;49.60;;;;;;4971511;23;20398;-89
2021/01/22 13:50:24;;;;;;;48.33;28.90;;;13.40;50.10;;;;;;4945838;29;20091;-91
